Time;durP1;ratioP1;P1;durP2;ratioP2;P2;SDS_P1;SDS_P2;PMS_P1;PMS_P2;Temp;Humidity;BMP_temperature;BMP_pressure;BME280_temperature;BME280_humidity;BME280_pressure;Samples;Min_cycle;Max_cycle;Signal;HPM_P1;HPM_P2
2022/06/29 00:00:17;;;;;;;2.63;0.90;;;;;;;;;;5067461;28;20086;-64
2022/06/29 00:02:44;;;;;;;2.95;0.90;;;;;;;;;;5060978;28;20219;-65
2022/06/29 00:05:11;;;;;;;5.25;0.90;;;;;;;;;;5049003;28;20053;-63
2022/06/29 00:07:38;;;;;;;3.53;0.93;;;;;;;;;;5071971;28;20053;-66
2022/06/29 00:10:05;;;;;;;1.30;0.90;;;;;;;;;;5064767;28;20048;-63
2022/06/29 00:12:32;;;;;;;1.70;0.98;;;;;;;;;;5060802;28;20060;-65
2022/06/29 00:15:02;;;;;;;1.60;0.80;;;;;;;;;;5067454;28;20132;-63
2022/06/29 00:17:29;;;;;;;5.15;0.90;;;;;;;;;;5063508;28;20131;-66
2022/06/29 00:19:55;;;;;;;1.58;0.80;;;;;;;;;;5064904;28;20049;-64
2022/06/29 00:22:22;;;;;;;1.13;0.70;;;;;;;;;;5066905;28;20133;-64
2022/06/29 00:24:48;;;;;;;2.55;0.85;;;;;;;;;;5060727;28;20056;-66
2022/06/29 00:27:15;;;;;;;1.17;0.70;;;;;;;;;;5067249;28;20117;-63
2022/06/29 00:29:42;;;;;;;1.75;0.85;;;;;;;;;;5060930;28;20053;-65
2022/06/29 00:32:10;;;;;;;1.73;0.80;;;;;;;;;;5083777;28;20060;-63
2022/06/29 00:34:37;;;;;;;4.80;1.30;;;;;;;;;;5078270;28;20052;-65
2022/06/29 00:37:04;;;;;;;2.65;1.00;;;;;;;;;;5066990;28;20068;-65
2022/06/29 00:39:31;;;;;;;1.70;1.00;;;;;;;;;;5066795;28;20063;-66
2022/06/29 00:41:58;;;;;;;2.15;1.00;;;;;;;;;;5060969;28;20057;-64
2022/06/29 00:44:25;;;;;;;2.67;0.82;;;;;;;;;;5066479;28;20064;-64
2022/06/29 00:46:53;;;;;;;4.90;1.27;;;;;;;;;;5052502;28;20101;-63
2022/06/29 00:49:21;;;;;;;2.58;0.90;;;;;;;;;;5055093;28;20081;-63
2022/06/29 00:51:49;;;;;;;1.10;0.80;;;;;;;;;;5047668;28;20160;-63
2022/06/29 00:54:18;;;;;;;4.77;1.03;;;;;;;;;;5066400;28;20055;-63
2022/06/29 00:56:44;;;;;;;2.92;1.17;;;;;;;;;;5062452;28;20061;-64
2022/06/29 00:59:13;;;;;;;4.50;1.27;;;;;;;;;;5063958;28;20056;-65
2022/06/29 01:01:40;;;;;;;2.33;0.90;;;;;;;;;;5066563;28;20059;-64
2022/06/29 01:04:07;;;;;;;4.72;1.00;;;;;;;;;;5060281;28;20052;-64
2022/06/29 01:06:35;;;;;;;2.15;0.90;;;;;;;;;;5066380;28;20044;-65
2022/06/29 01:09:03;;;;;;;1.20;0.93;;;;;;;;;;5060617;28;20098;-64
2022/06/29 01:11:29;;;;;;;2.03;0.90;;;;;;;;;;5067314;28;20122;-63
2022/06/29 01:13:56;;;;;;;3.15;1.05;;;;;;;;;;5060964;28;20056;-64
2022/06/29 01:16:26;;;;;;;4.43;1.17;;;;;;;;;;5066636;28;20067;-64
2022/06/29 01:18:52;;;;;;;1.85;1.02;;;;;;;;;;5066577;28;20048;-64
2022/06/29 01:21:19;;;;;;;2.67;1.05;;;;;;;;;;5061663;28;20063;-64
2022/06/29 01:23:47;;;;;;;10.30;1.38;;;;;;;;;;5065855;28;20102;-64
2022/06/29 01:26:14;;;;;;;2.33;0.77;;;;;;;;;;5061432;28;20110;-63
2022/06/29 01:28:43;;;;;;;4.80;1.10;;;;;;;;;;5066691;28;20049;-64
2022/06/29 01:31:13;;;;;;;2.92;1.27;;;;;;;;;;5066305;28;20076;-65
2022/06/29 01:33:39;;;;;;;1.65;1.00;;;;;;;;;;5066027;28;20044;-64
2022/06/29 01:36:06;;;;;;;1.55;0.77;;;;;;;;;;5061125;28;20065;-64
2022/06/29 01:38:33;;;;;;;7.78;1.23;;;;;;;;;;5082389;28;20053;-64
2022/06/29 01:41:01;;;;;;;3.97;1.08;;;;;;;;;;5060812;28;20053;-63
2022/06/29 01:43:28;;;;;;;1.67;0.93;;;;;;;;;;5066543;28;20164;-64
2022/06/29 01:45:54;;;;;;;1.95;0.98;;;;;;;;;;5060531;28;20048;-63
2022/06/29 01:48:21;;;;;;;1.77;1.00;;;;;;;;;;5083380;28;20181;-65
2022/06/29 01:50:47;;;;;;;1.63;1.00;;;;;;;;;;5076620;28;20056;-63
2022/06/29 01:53:14;;;;;;;1.70;1.10;;;;;;;;;;5070620;28;20052;-63
2022/06/29 01:55:41;;;;;;;2.15;1.00;;;;;;;;;;5081251;28;20052;-63
2022/06/29 01:58:09;;;;;;;2.72;1.67;;;;;;;;;;5087245;28;20044;-63
2022/06/29 02:00:35;;;;;;;2.00;1.00;;;;;;;;;;5083576;28;20109;-63
2022/06/29 02:03:02;;;;;;;2.10;1.10;;;;;;;;;;5084078;28;20060;-64
2022/06/29 02:05:29;;;;;;;1.80;0.98;;;;;;;;;;5069458;28;20063;-64
2022/06/29 02:07:55;;;;;;;4.45;1.40;;;;;;;;;;5064178;28;20126;-63
2022/06/29 02:10:22;;;;;;;1.98;1.00;;;;;;;;;;5086782;28;20067;-63
2022/06/29 02:12:48;;;;;;;5.55;1.27;;;;;;;;;;5080682;28;20060;-63
2022/06/29 02:15:16;;;;;;;1.75;0.98;;;;;;;;;;5070894;28;20052;-65
2022/06/29 02:17:43;;;;;;;2.45;1.20;;;;;;;;;;5080952;28;20067;-64
2022/06/29 02:20:11;;;;;;;3.20;1.10;;;;;;;;;;5085329;28;20052;-64
2022/06/29 02:22:38;;;;;;;4.03;1.08;;;;;;;;;;5064160;28;20048;-63
2022/06/29 02:25:05;;;;;;;2.35;1.30;;;;;;;;;;5069141;28;20048;-63
2022/06/29 02:27:31;;;;;;;2.63;1.00;;;;;;;;;;5063925;28;20049;-64
2022/06/29 02:29:58;;;;;;;1.70;0.90;;;;;;;;;;5069225;28;20045;-65
2022/06/29 02:35:10;;;;;;;2.00;1.00;;;;;;;;;;5069306;28;20055;-64
2022/06/29 02:37:39;;;;;;;1.63;0.93;;;;;;;;;;5063802;28;20044;-63
2022/06/29 02:40:06;;;;;;;2.08;1.13;;;;;;;;;;5068648;28;20059;-63
2022/06/29 02:42:32;;;;;;;2.95;1.40;;;;;;;;;;5063100;28;20093;-64
2022/06/29 02:44:59;;;;;;;2.67;1.00;;;;;;;;;;5085447;28;20053;-63
2022/06/29 02:47:29;;;;;;;3.30;1.30;;;;;;;;;;5082888;28;20049;-64
2022/06/29 02:49:56;;;;;;;4.53;1.40;;;;;;;;;;5058131;28;20037;-63
2022/06/29 02:52:22;;;;;;;2.20;1.10;;;;;;;;;;5069593;28;20056;-63
2022/06/29 02:54:49;;;;;;;3.03;1.50;;;;;;;;;;5063529;28;20064;-63
2022/06/29 02:57:16;;;;;;;2.03;1.08;;;;;;;;;;5068698;28;20060;-63
2022/06/29 02:59:42;;;;;;;3.13;1.30;;;;;;;;;;5063163;28;20070;-63
2022/06/29 03:02:09;;;;;;;1.88;0.90;;;;;;;;;;5068314;28;20059;-63
2022/06/29 03:04:37;;;;;;;3.53;1.67;;;;;;;;;;5062657;28;20052;-64
2022/06/29 03:07:03;;;;;;;2.47;1.45;;;;;;;;;;5068014;28;20067;-65
2022/06/29 03:09:30;;;;;;;2.83;1.45;;;;;;;;;;5079785;28;20102;-65
2022/06/29 03:11:57;;;;;;;5.57;1.50;;;;;;;;;;5084909;28;20079;-64
2022/06/29 03:14:23;;;;;;;3.50;1.70;;;;;;;;;;5078422;28;20052;-63
2022/06/29 03:16:50;;;;;;;2.85;1.30;;;;;;;;;;5067403;28;20060;-63
2022/06/29 03:19:16;;;;;;;3.13;1.30;;;;;;;;;;5062201;28;20132;-63
2022/06/29 03:21:44;;;;;;;2.95;1.50;;;;;;;;;;5068388;28;20051;-63
2022/06/29 03:24:11;;;;;;;3.30;1.60;;;;;;;;;;5062833;28;20044;-63
2022/06/29 03:26:37;;;;;;;3.33;1.58;;;;;;;;;;5069336;28;20060;-63
2022/06/29 03:29:05;;;;;;;2.72;1.02;;;;;;;;;;5063847;28;20071;-64
2022/06/29 03:31:32;;;;;;;1.45;1.08;;;;;;;;;;5066713;28;20071;-63
2022/06/29 03:33:58;;;;;;;7.32;1.80;;;;;;;;;;5068182;28;20191;-63
2022/06/29 03:36:27;;;;;;;3.25;1.40;;;;;;;;;;5062690;28;20109;-64
2022/06/29 03:38:56;;;;;;;3.05;1.20;;;;;;;;;;5068095;28;20053;-63
2022/06/29 03:41:23;;;;;;;3.97;1.65;;;;;;;;;;5066479;28;20059;-64
2022/06/29 03:43:52;;;;;;;1.70;1.23;;;;;;;;;;5068747;28;20060;-63
2022/06/29 03:46:18;;;;;;;;;;;;;;;;;;5063332;28;20135;-63
2022/06/29 03:48:44;;;;;;;4.82;1.75;;;;;;;;;;5085343;28;19921;-63
2022/06/29 03:51:11;;;;;;;3.75;1.40;;;;;;;;;;5062274;28;20098;-63
2022/06/29 03:53:38;;;;;;;3.33;1.20;;;;;;;;;;5087250;28;20108;-64
2022/06/29 03:56:06;;;;;;;2.60;1.10;;;;;;;;;;5063720;28;20048;-64
2022/06/29 03:58:32;;;;;;;2.80;1.35;;;;;;;;;;5067942;28;20068;-63
2022/06/29 04:00:59;;;;;;;4.07;1.33;;;;;;;;;;5062810;28;20052;-63
2022/06/29 04:03:25;;;;;;;2.60;1.33;;;;;;;;;;5083824;28;20048;-64
2022/06/29 04:05:52;;;;;;;4.47;1.70;;;;;;;;;;5073808;28;20060;-63
2022/06/29 04:08:19;;;;;;;2.35;1.30;;;;;;;;;;5085182;28;20080;-64
2022/06/29 04:10:45;;;;;;;3.00;1.30;;;;;;;;;;5062646;28;20053;-64
2022/06/29 04:13:13;;;;;;;3.33;1.42;;;;;;;;;;5064107;28;20060;-63
2022/06/29 04:15:40;;;;;;;4.25;1.60;;;;;;;;;;5066729;28;20052;-64
2022/06/29 04:18:07;;;;;;;2.20;1.15;;;;;;;;;;5060970;28;20049;-63
2022/06/29 04:23:17;;;;;;;4.05;1.70;;;;;;;;;;5095140;28;20049;-62
2022/06/29 04:25:44;;;;;;;4.05;1.88;;;;;;;;;;5084100;28;20051;-63
2022/06/29 04:28:10;;;;;;;2.83;1.50;;;;;;;;;;5077342;28;20222;-64
2022/06/29 04:30:38;;;;;;;3.85;1.38;;;;;;;;;;5067422;28;20071;-64
2022/06/29 04:33:07;;;;;;;3.25;1.90;;;;;;;;;;5063940;28;20045;-63
2022/06/29 04:35:34;;;;;;;2.58;1.60;;;;;;;;;;5097172;28;20087;-63
2022/06/29 04:38:01;;;;;;;2.53;1.20;;;;;;;;;;5067136;28;20053;-63
2022/06/29 04:40:28;;;;;;;4.97;1.83;;;;;;;;;;5065175;28;20044;-64
2022/06/29 04:42:55;;;;;;;2.85;1.33;;;;;;;;;;5066306;28;20053;-63
2022/06/29 04:48:07;;;;;;;3.15;1.63;;;;;;;;;;5100318;28;20055;-63
2022/06/29 04:50:33;;;;;;;1.58;1.10;;;;;;;;;;5060391;28;20060;-63
2022/06/29 04:53:00;;;;;;;5.05;1.98;;;;;;;;;;5066860;28;20053;-63
2022/06/29 04:55:29;;;;;;;2.63;1.25;;;;;;;;;;5067208;28;20052;-63
2022/06/29 04:57:57;;;;;;;5.50;1.67;;;;;;;;;;5060666;28;20068;-63
2022/06/29 05:00:23;;;;;;;3.30;1.43;;;;;;;;;;5066661;28;20056;-63
2022/06/29 05:02:50;;;;;;;6.38;1.60;;;;;;;;;;5055113;28;20060;-64
2022/06/29 05:05:18;;;;;;;3.28;1.48;;;;;;;;;;5065590;28;20056;-63
2022/06/29 05:07:45;;;;;;;2.70;1.40;;;;;;;;;;5057163;28;20071;-63
2022/06/29 05:10:12;;;;;;;6.22;2.38;;;;;;;;;;5065587;28;20060;-63
2022/06/29 05:12:38;;;;;;;1.88;1.20;;;;;;;;;;5059442;28;20143;-63
2022/06/29 05:15:06;;;;;;;2.80;1.30;;;;;;;;;;5062076;28;20106;-64
2022/06/29 05:17:36;;;;;;;2.97;1.27;;;;;;;;;;5065217;28;20048;-63
2022/06/29 05:20:03;;;;;;;3.50;1.50;;;;;;;;;;5057572;28;20063;-65
2022/06/29 05:22:31;;;;;;;2.17;1.20;;;;;;;;;;5065165;28;20064;-64
2022/06/29 05:24:58;;;;;;;2.38;1.40;;;;;;;;;;5059572;28;20052;-63
2022/06/29 05:27:26;;;;;;;2.03;1.33;;;;;;;;;;5068826;28;20056;-63
2022/06/29 05:29:53;;;;;;;;;;;;;;;;;;5064083;28;20079;-63
2022/06/29 05:32:20;;;;;;;2.03;1.27;;;;;;;;;;5101013;28;20019;-63
2022/06/29 05:34:46;;;;;;;2.95;1.20;;;;;;;;;;5063604;28;20044;-63
2022/06/29 05:37:13;;;;;;;4.97;2.10;;;;;;;;;;5069033;28;20140;-63
2022/06/29 05:39:42;;;;;;;2.53;1.40;;;;;;;;;;5063614;28;20032;-63
2022/06/29 05:42:08;;;;;;;3.67;1.65;;;;;;;;;;5069699;28;20048;-63
2022/06/29 05:44:35;;;;;;;5.07;1.88;;;;;;;;;;5062937;28;20044;-63
2022/06/29 05:47:03;;;;;;;3.53;1.75;;;;;;;;;;5069433;28;20049;-64
2022/06/29 05:49:30;;;;;;;7.75;2.60;;;;;;;;;;5070139;28;20166;-63
2022/06/29 05:51:56;;;;;;;7.75;2.70;;;;;;;;;;5080097;28;20075;-63
2022/06/29 05:54:23;;;;;;;6.93;2.03;;;;;;;;;;5068913;28;20055;-63
2022/06/29 05:56:51;;;;;;;3.17;1.50;;;;;;;;;;5079294;28;20090;-64
2022/06/29 05:59:18;;;;;;;5.93;1.60;;;;;;;;;;5070160;28;20064;-64
2022/06/29 06:01:44;;;;;;;5.43;2.10;;;;;;;;;;5064135;28;20140;-64
2022/06/29 06:04:11;;;;;;;4.28;2.05;;;;;;;;;;5069628;28;20060;-63
2022/06/29 06:06:40;;;;;;;8.05;1.83;;;;;;;;;;5063820;28;20048;-63
2022/06/29 06:09:06;;;;;;;3.95;1.70;;;;;;;;;;5069724;28;20060;-63
2022/06/29 06:11:33;;;;;;;3.65;1.48;;;;;;;;;;5074994;28;20052;-63
2022/06/29 06:14:01;;;;;;;5.13;1.63;;;;;;;;;;5070513;28;20051;-63
2022/06/29 06:16:28;;;;;;;5.68;1.30;;;;;;;;;;5084067;28;20048;-64
2022/06/29 06:18:54;;;;;;;8.05;1.90;;;;;;;;;;5069514;28;20048;-63
2022/06/29 06:21:21;;;;;;;5.03;2.05;;;;;;;;;;5047535;28;20055;-63
2022/06/29 06:23:48;;;;;;;3.22;1.50;;;;;;;;;;5069654;28;20048;-64
2022/06/29 06:26:15;;;;;;;5.53;1.60;;;;;;;;;;5063243;28;20055;-64
2022/06/29 06:28:42;;;;;;;1.95;1.30;;;;;;;;;;5069002;28;20079;-63
2022/06/29 06:31:10;;;;;;;8.25;2.45;;;;;;;;;;5069438;28;20049;-63
2022/06/29 06:33:37;;;;;;;6.28;2.70;;;;;;;;;;5063537;28;20052;-64
2022/06/29 06:36:03;;;;;;;3.70;1.60;;;;;;;;;;5069557;28;20064;-63
2022/06/29 06:38:30;;;;;;;5.70;1.83;;;;;;;;;;5065574;28;20080;-63
2022/06/29 06:43:41;;;;;;;6.20;2.50;;;;;;;;;;5061636;28;20060;-65
2022/06/29 06:46:07;;;;;;;5.38;2.33;;;;;;;;;;5085752;28;20049;-63
2022/06/29 06:48:35;;;;;;;6.57;2.22;;;;;;;;;;5080262;28;20079;-63
2022/06/29 06:51:02;;;;;;;5.85;2.00;;;;;;;;;;5086014;28;20048;-63
2022/06/29 06:53:29;;;;;;;7.35;2.22;;;;;;;;;;5063411;28;20040;-63
2022/06/29 06:55:56;;;;;;;6.40;2.83;;;;;;;;;;5068535;28;20048;-63
2022/06/29 06:58:22;;;;;;;5.78;1.75;;;;;;;;;;5062990;28;20040;-63
2022/06/29 07:00:49;;;;;;;7.40;2.08;;;;;;;;;;5068104;28;20040;-64
2022/06/29 07:03:16;;;;;;;5.95;2.47;;;;;;;;;;5063295;28;20071;-64
2022/06/29 07:05:44;;;;;;;4.18;1.73;;;;;;;;;;5070335;28;20063;-63
2022/06/29 07:08:10;;;;;;;5.15;2.20;;;;;;;;;;5060273;28;20091;-63
2022/06/29 07:10:37;;;;;;;3.60;1.73;;;;;;;;;;5066279;28;20052;-63
2022/06/29 07:13:03;;;;;;;3.22;1.45;;;;;;;;;;5067315;28;20056;-64
2022/06/29 07:15:30;;;;;;;5.13;2.22;;;;;;;;;;5058371;28;20059;-63
2022/06/29 07:17:57;;;;;;;5.63;2.50;;;;;;;;;;5065769;28;20063;-63
2022/06/29 07:20:28;;;;;;;4.35;1.90;;;;;;;;;;5058090;28;20052;-63
2022/06/29 07:22:56;;;;;;;5.63;2.40;;;;;;;;;;5067026;28;20151;-63
2022/06/29 07:25:25;;;;;;;7.18;2.83;;;;;;;;;;5058785;28;20074;-63
2022/06/29 07:27:52;;;;;;;6.55;2.90;;;;;;;;;;5066478;28;20082;-63
2022/06/29 07:30:18;;;;;;;6.50;2.28;;;;;;;;;;5062233;28;20060;-63
2022/06/29 07:32:45;;;;;;;9.38;2.15;;;;;;;;;;5063184;28;20104;-63
2022/06/29 07:35:12;;;;;;;7.68;2.90;;;;;;;;;;5066782;28;20063;-63
2022/06/29 07:37:39;;;;;;;6.25;2.13;;;;;;;;;;5052037;28;20113;-64
2022/06/29 07:40:07;;;;;;;5.15;1.92;;;;;;;;;;5066694;28;20044;-63
2022/06/29 07:42:35;;;;;;;4.97;1.90;;;;;;;;;;5058389;28;20114;-63
2022/06/29 07:45:02;;;;;;;6.55;2.20;;;;;;;;;;5065017;28;20106;-63
2022/06/29 07:47:29;;;;;;;10.65;2.85;;;;;;;;;;5060883;28;20102;-63
2022/06/29 07:49:56;;;;;;;7.35;2.10;;;;;;;;;;5094807;28;20132;-63
2022/06/29 07:52:22;;;;;;;4.15;2.00;;;;;;;;;;5066328;28;20052;-63
2022/06/29 07:54:49;;;;;;;9.02;2.83;;;;;;;;;;5056378;28;20056;-63
2022/06/29 07:57:17;;;;;;;8.60;2.53;;;;;;;;;;5066342;28;20052;-63
2022/06/29 07:59:46;;;;;;;5.53;2.17;;;;;;;;;;5057916;28;20040;-63
2022/06/29 08:02:12;;;;;;;;;;;;;;;;;;5066540;28;20036;-63
2022/06/29 08:04:39;;;;;;;5.00;1.95;;;;;;;;;;5056877;28;19929;-63
2022/06/29 08:07:05;;;;;;;5.47;2.20;;;;;;;;;;5067769;28;20052;-63
2022/06/29 08:09:33;;;;;;;4.40;1.80;;;;;;;;;;5064160;28;20045;-63
2022/06/29 08:11:59;;;;;;;9.38;2.30;;;;;;;;;;5059915;28;20044;-63
2022/06/29 08:14:28;;;;;;;10.05;3.05;;;;;;;;;;5066070;28;20064;-64
2022/06/29 08:16:55;;;;;;;4.03;2.05;;;;;;;;;;5056672;28;20058;-63
2022/06/29 08:19:21;;;;;;;9.00;1.92;;;;;;;;;;5065540;28;20071;-63
2022/06/29 08:21:48;;;;;;;5.13;2.28;;;;;;;;;;5059751;28;20048;-63
2022/06/29 08:24:15;;;;;;;6.07;2.10;;;;;;;;;;5065141;28;20045;-63
2022/06/29 08:26:41;;;;;;;8.98;2.35;;;;;;;;;;5059833;28;20098;-63
2022/06/29 08:29:08;;;;;;;5.15;1.90;;;;;;;;;;5064964;28;20056;-63
2022/06/29 08:31:36;;;;;;;8.98;2.55;;;;;;;;;;5059652;28;20128;-63
2022/06/29 08:34:04;;;;;;;5.05;2.13;;;;;;;;;;5065018;28;20053;-63
2022/06/29 08:36:30;;;;;;;6.05;1.77;;;;;;;;;;5057976;28;20056;-63
2022/06/29 08:38:57;;;;;;;7.18;2.25;;;;;;;;;;5065514;28;20048;-63
2022/06/29 08:41:25;;;;;;;7.18;1.92;;;;;;;;;;5065586;28;20122;-63
2022/06/29 08:43:52;;;;;;;4.75;1.77;;;;;;;;;;5059840;28;20082;-63
2022/06/29 08:46:19;;;;;;;5.13;1.45;;;;;;;;;;5065410;28;20063;-64
2022/06/29 08:48:48;;;;;;;5.07;1.50;;;;;;;;;;5059492;28;20049;-63
2022/06/29 08:51:18;;;;;;;2.38;1.42;;;;;;;;;;5064808;28;20053;-64
2022/06/29 08:53:44;;;;;;;3.42;1.40;;;;;;;;;;5058438;28;20059;-63
2022/06/29 08:56:11;;;;;;;3.65;1.35;;;;;;;;;;5066919;28;20105;-63
2022/06/29 08:58:41;;;;;;;5.38;1.85;;;;;;;;;;5059688;28;20056;-63
2022/06/29 09:01:08;;;;;;;4.50;1.80;;;;;;;;;;5064120;28;20163;-63
2022/06/29 09:03:35;;;;;;;6.72;1.92;;;;;;;;;;5058218;28;20048;-63
2022/06/29 09:06:06;;;;;;;8.27;1.98;;;;;;;;;;5064666;28;20088;-63
2022/06/29 09:08:34;;;;;;;6.03;1.80;;;;;;;;;;5059516;28;20037;-63
2022/06/29 09:11:16;;;;;;;6.50;1.75;;;;;;;;;;5064192;28;20052;-64
2022/06/29 09:13:42;;;;;;;3.67;1.38;;;;;;;;;;5059646;28;20098;-63
2022/06/29 09:16:09;;;;;;;2.75;1.40;;;;;;;;;;5064618;28;20036;-63
2022/06/29 09:18:37;;;;;;;3.08;1.58;;;;;;;;;;5059445;28;20060;-63
2022/06/29 09:21:06;;;;;;;2.22;1.15;;;;;;;;;;5096341;28;20080;-63
2022/06/29 09:23:32;;;;;;;;;;;;;;;;;;5059263;28;20064;-63
2022/06/29 09:25:59;;;;;;;3.55;1.60;;;;;;;;;;5065258;28;20010;-64
2022/06/29 09:28:26;;;;;;;4.65;1.90;;;;;;;;;;5060466;28;20063;-63
2022/06/29 09:30:53;;;;;;;3.70;1.60;;;;;;;;;;5064113;28;20067;-64
2022/06/29 09:33:21;;;;;;;8.75;1.63;;;;;;;;;;5064493;28;20084;-63
2022/06/29 09:36:04;;;;;;;2.93;1.50;;;;;;;;;;5059369;28;20056;-63
2022/06/29 09:38:32;;;;;;;5.78;1.60;;;;;;;;;;5064650;28;20305;-62
2022/06/29 09:40:59;;;;;;;5.20;1.55;;;;;;;;;;5059445;28;20056;-63
2022/06/29 09:43:26;;;;;;;10.10;1.70;;;;;;;;;;5064501;28;20091;-63
2022/06/29 09:45:52;;;;;;;5.53;1.65;;;;;;;;;;5057914;28;20048;-63
2022/06/29 09:48:22;;;;;;;4.63;1.40;;;;;;;;;;5064976;28;20056;-63
2022/06/29 09:50:49;;;;;;;3.53;1.33;;;;;;;;;;5059610;28;20049;-63
2022/06/29 09:53:16;;;;;;;3.22;1.55;;;;;;;;;;5064850;28;20048;-62
2022/06/29 09:55:45;;;;;;;5.55;1.48;;;;;;;;;;5058810;28;20060;-63
2022/06/29 09:58:11;;;;;;;3.92;1.30;;;;;;;;;;5063357;28;20064;-62
2022/06/29 10:03:22;;;;;;;4.45;1.50;;;;;;;;;;5081981;28;20102;-64
2022/06/29 10:05:58;;;;;;;3.92;1.77;;;;;;;;;;5058907;28;20044;-64
2022/06/29 10:08:26;;;;;;;4.85;1.70;;;;;;;;;;5064231;28;20056;-63
2022/06/29 10:11:01;;;;;;;3.63;1.50;;;;;;;;;;5057715;28;20054;-63
2022/06/29 10:13:42;;;;;;;2.40;1.38;;;;;;;;;;5067162;28;20157;-63
2022/06/29 10:16:12;;;;;;;4.85;1.60;;;;;;;;;;5061975;28;20048;-63
2022/06/29 10:18:46;;;;;;;3.05;1.48;;;;;;;;;;5067199;28;20084;-63
2022/06/29 10:21:14;;;;;;;3.72;1.20;;;;;;;;;;5061516;28;20052;-64
2022/06/29 10:23:43;;;;;;;2.60;1.38;;;;;;;;;;5068253;28;20139;-63
2022/06/29 10:26:25;;;;;;;4.00;1.50;;;;;;;;;;5062560;28;20043;-64
2022/06/29 10:28:56;;;;;;;5.15;1.48;;;;;;;;;;5099250;28;20135;-62
2022/06/29 10:31:48;;;;;;;3.72;1.40;;;;;;;;;;5062869;28;20057;-64
2022/06/29 10:34:30;;;;;;;3.85;1.35;;;;;;;;;;5066941;28;20136;-64
2022/06/29 10:37:00;;;;;;;6.18;1.90;;;;;;;;;;5091815;28;20113;-63
2022/06/29 10:39:27;;;;;;;5.50;1.70;;;;;;;;;;5066782;28;20048;-63
2022/06/29 10:45:02;;;;;;;4.13;1.30;;;;;;;;;;5066057;28;20093;-63
2022/06/29 10:47:31;;;;;;;3.53;1.45;;;;;;;;;;5047151;28;20143;-64
2022/06/29 10:50:15;;;;;;;3.15;1.50;;;;;;;;;;5067639;28;20059;-63
2022/06/29 10:52:44;;;;;;;4.30;1.58;;;;;;;;;;5047159;28;20253;-63
2022/06/29 10:55:11;;;;;;;5.18;1.25;;;;;;;;;;5066870;28;20051;-63
2022/06/29 10:57:39;;;;;;;5.28;1.50;;;;;;;;;;5062152;28;20053;-64
2022/06/29 11:00:09;;;;;;;4.60;1.20;;;;;;;;;;5066628;28;20044;-64
2022/06/29 11:02:37;;;;;;;2.90;1.20;;;;;;;;;;5051942;28;20062;-64
2022/06/29 11:05:10;;;;;;;1.77;1.20;;;;;;;;;;5065269;28;20052;-64
2022/06/29 11:13:07;;;;;;;5.68;1.50;;;;;;;;;;5061100;28;20104;-62
2022/06/29 11:15:41;;;;;;;2.50;1.33;;;;;;;;;;5066524;28;20084;-63
2022/06/29 11:18:11;;;;;;;3.78;1.20;;;;;;;;;;5092681;28;20079;-62
2022/06/29 11:20:38;;;;;;;4.82;1.38;;;;;;;;;;5067462;28;20050;-63
2022/06/29 11:23:09;;;;;;;2.75;1.27;;;;;;;;;;5061589;28;20056;-63
2022/06/29 11:25:37;;;;;;;2.78;1.17;;;;;;;;;;5066596;28;20053;-63
2022/06/29 11:28:04;;;;;;;2.73;1.10;;;;;;;;;;5064657;28;20088;-63
2022/06/29 11:30:31;;;;;;;5.03;1.38;;;;;;;;;;5068116;28;20048;-63
2022/06/29 11:32:57;;;;;;;2.00;1.15;;;;;;;;;;5068236;28;20056;-63
2022/06/29 11:35:27;;;;;;;2.42;1.40;;;;;;;;;;5058119;28;20045;-63
2022/06/29 11:37:57;;;;;;;5.03;1.38;;;;;;;;;;5066223;28;20147;-63
2022/06/29 11:40:30;;;;;;;3.35;1.05;;;;;;;;;;5060336;28;20056;-63
2022/06/29 11:43:07;;;;;;;4.63;1.20;;;;;;;;;;5065356;28;20074;-63
2022/06/29 11:45:37;;;;;;;5.05;1.65;;;;;;;;;;5059514;28;20084;-63
2022/06/29 11:48:10;;;;;;;2.42;1.20;;;;;;;;;;5065581;28;20052;-63
2022/06/29 11:50:43;;;;;;;4.78;1.42;;;;;;;;;;5058706;28;20072;-63
2022/06/29 11:53:10;;;;;;;3.13;1.25;;;;;;;;;;5065341;28;20055;-63
2022/06/29 11:55:41;;;;;;;3.05;1.20;;;;;;;;;;5059207;28;20048;-62
2022/06/29 11:58:09;;;;;;;5.38;1.10;;;;;;;;;;5065570;28;20067;-63
2022/06/29 12:00:38;;;;;;;3.15;1.20;;;;;;;;;;5060646;28;20053;-63
2022/06/29 12:03:04;;;;;;;5.35;1.20;;;;;;;;;;5065571;28;20122;-63
2022/06/29 12:05:31;;;;;;;2.42;1.10;;;;;;;;;;5054352;28;20060;-63
2022/06/29 12:07:59;;;;;;;3.53;1.00;;;;;;;;;;5081589;28;20054;-63
2022/06/29 12:10:26;;;;;;;;;;;;;;;;;;5056862;28;20061;-63
2022/06/29 12:12:52;;;;;;;1.77;1.10;;;;;;;;;;5097597;28;19924;-63
2022/06/29 12:15:19;;;;;;;4.03;1.00;;;;;;;;;;5062459;28;20059;-63
2022/06/29 12:17:47;;;;;;;2.80;1.30;;;;;;;;;;5061269;28;20052;-63
2022/06/29 12:20:14;;;;;;;4.18;1.25;;;;;;;;;;5081139;28;20056;-63
2022/06/29 12:22:41;;;;;;;4.63;1.38;;;;;;;;;;5057050;28;20059;-63
2022/06/29 12:25:09;;;;;;;6.60;1.40;;;;;;;;;;5064578;28;20052;-63
2022/06/29 12:27:37;;;;;;;4.10;1.30;;;;;;;;;;5056673;28;20044;-63
2022/06/29 12:30:05;;;;;;;3.17;1.52;;;;;;;;;;5064253;28;20080;-63
2022/06/29 12:32:31;;;;;;;;;;;;;;;;;;5057252;28;20064;-63
2022/06/29 12:34:58;;;;;;;3.70;1.08;;;;;;;;;;5062961;28;19932;-63
2022/06/29 12:37:26;;;;;;;4.45;1.15;;;;;;;;;;5065203;28;20048;-63
2022/06/29 12:39:53;;;;;;;3.22;1.30;;;;;;;;;;5057059;28;20053;-64
2022/06/29 12:42:22;;;;;;;9.63;1.10;;;;;;;;;;5053856;28;20075;-63
2022/06/29 12:44:50;;;;;;;5.80;1.20;;;;;;;;;;5056817;28;20135;-64
2022/06/29 12:47:16;;;;;;;9.75;1.35;;;;;;;;;;5065421;28;20057;-64
2022/06/29 12:49:43;;;;;;;2.05;1.05;;;;;;;;;;5055859;28;20163;-64
2022/06/29 12:52:10;;;;;;;3.33;1.30;;;;;;;;;;5065843;28;20111;-64
2022/06/29 12:54:36;;;;;;;4.03;1.50;;;;;;;;;;5062880;28;20052;-64
2022/06/29 12:57:03;;;;;;;6.07;1.42;;;;;;;;;;5059285;28;20044;-64
2022/06/29 12:59:31;;;;;;;5.45;1.20;;;;;;;;;;5065274;28;20052;-64
2022/06/29 13:01:58;;;;;;;2.55;1.00;;;;;;;;;;5056059;28;20052;-64
2022/06/29 13:04:24;;;;;;;2.67;1.00;;;;;;;;;;5063436;28;20114;-64
2022/06/29 13:06:51;;;;;;;5.72;1.15;;;;;;;;;;5057161;28;20044;-64
2022/06/29 13:09:17;;;;;;;4.07;1.20;;;;;;;;;;5065143;28;20052;-64
2022/06/29 13:11:44;;;;;;;3.25;1.20;;;;;;;;;;5058732;28;20056;-65
2022/06/29 13:14:11;;;;;;;3.97;1.25;;;;;;;;;;5062999;28;20060;-65
2022/06/29 13:16:39;;;;;;;2.90;1.35;;;;;;;;;;5063426;28;20051;-64
2022/06/29 13:19:06;;;;;;;6.40;1.30;;;;;;;;;;5056530;28;20048;-64
2022/06/29 13:21:33;;;;;;;6.05;1.30;;;;;;;;;;5065135;28;20072;-64
2022/06/29 13:24:00;;;;;;;3.08;1.20;;;;;;;;;;5059245;28;20125;-65
2022/06/29 13:26:27;;;;;;;6.60;1.40;;;;;;;;;;5064462;28;20064;-65
2022/06/29 13:28:55;;;;;;;4.82;1.15;;;;;;;;;;5059755;28;20083;-65
2022/06/29 13:31:21;;;;;;;4.18;1.10;;;;;;;;;;5064560;28;20052;-65
2022/06/29 13:33:49;;;;;;;3.25;1.10;;;;;;;;;;5059441;28;20052;-64
2022/06/29 13:36:16;;;;;;;2.50;1.20;;;;;;;;;;5064196;28;20056;-64
2022/06/29 13:38:43;;;;;;;4.07;1.30;;;;;;;;;;5059005;28;20071;-65
2022/06/29 13:41:10;;;;;;;4.85;1.20;;;;;;;;;;5064556;28;20056;-65
2022/06/29 13:43:36;;;;;;;3.13;1.20;;;;;;;;;;5059328;28;20049;-64
2022/06/29 13:46:03;;;;;;;12.43;1.13;;;;;;;;;;5064743;28;20063;-65
2022/06/29 13:48:30;;;;;;;7.22;1.60;;;;;;;;;;5067609;28;20086;-65
2022/06/29 13:50:58;;;;;;;1.65;0.98;;;;;;;;;;5062339;28;20049;-65
2022/06/29 13:53:25;;;;;;;6.80;1.30;;;;;;;;;;5066615;28;20053;-64
2022/06/29 13:55:51;;;;;;;5.63;1.38;;;;;;;;;;5060162;28;20056;-65
2022/06/29 13:58:18;;;;;;;2.28;1.20;;;;;;;;;;5068150;28;20101;-65
2022/06/29 14:00:46;;;;;;;8.88;1.30;;;;;;;;;;5062176;28;20064;-65
2022/06/29 14:03:13;;;;;;;5.82;1.25;;;;;;;;;;5068872;28;20037;-65
2022/06/29 14:05:40;;;;;;;3.92;1.13;;;;;;;;;;5060954;28;20048;-65
2022/06/29 14:08:08;;;;;;;6.65;1.30;;;;;;;;;;5068261;28;20056;-64
2022/06/29 14:10:34;;;;;;;4.00;1.20;;;;;;;;;;5062851;28;20064;-65
2022/06/29 14:13:01;;;;;;;5.25;1.33;;;;;;;;;;5067080;28;20052;-64
2022/06/29 14:15:27;;;;;;;5.32;1.50;;;;;;;;;;5066821;28;20045;-65
2022/06/29 14:17:55;;;;;;;2.05;1.15;;;;;;;;;;5067015;28;20045;-65
2022/06/29 14:20:22;;;;;;;6.00;1.20;;;;;;;;;;5061770;28;20094;-65
2022/06/29 14:22:49;;;;;;;4.03;1.50;;;;;;;;;;5067584;28;20064;-64
2022/06/29 14:25:17;;;;;;;4.10;1.45;;;;;;;;;;5062323;28;20054;-65
2022/06/29 14:27:44;;;;;;;8.88;1.60;;;;;;;;;;5066451;28;20037;-65
2022/06/29 14:30:12;;;;;;;4.30;1.05;;;;;;;;;;5067577;28;20045;-65
2022/06/29 14:32:41;;;;;;;4.13;1.45;;;;;;;;;;5065019;28;20040;-65
2022/06/29 14:35:08;;;;;;;3.53;1.15;;;;;;;;;;5067763;28;20105;-65
2022/06/29 14:37:35;;;;;;;4.27;1.00;;;;;;;;;;5061561;28;20152;-65
2022/06/29 14:40:02;;;;;;;3.13;1.25;;;;;;;;;;5066402;28;20060;-65
2022/06/29 14:42:30;;;;;;;5.82;1.50;;;;;;;;;;5061725;28;20067;-65
2022/06/29 14:44:57;;;;;;;6.78;1.23;;;;;;;;;;5067359;28;20059;-65
2022/06/29 14:47:25;;;;;;;7.03;1.40;;;;;;;;;;5062092;28;20082;-65
2022/06/29 14:49:51;;;;;;;2.40;1.20;;;;;;;;;;5083702;28;20134;-65
2022/06/29 14:52:18;;;;;;;2.72;1.15;;;;;;;;;;5062510;28;20056;-65
2022/06/29 14:54:45;;;;;;;3.28;1.60;;;;;;;;;;5067236;28;20067;-64
2022/06/29 14:57:13;;;;;;;3.72;1.02;;;;;;;;;;5062191;28;20049;-65
2022/06/29 14:59:41;;;;;;;6.25;1.30;;;;;;;;;;5067476;28;20045;-65
2022/06/29 15:02:08;;;;;;;7.03;1.23;;;;;;;;;;5060411;28;20048;-64
2022/06/29 15:04:35;;;;;;;7.13;1.05;;;;;;;;;;5066214;28;20056;-64
2022/06/29 15:07:01;;;;;;;2.92;1.30;;;;;;;;;;5061142;28;20055;-65
2022/06/29 15:09:30;;;;;;;5.82;1.45;;;;;;;;;;5067795;28;20057;-64